Time;durP1;ratioP1;P1;durP2;ratioP2;P2;SDS_P1;SDS_P2;PMS_P1;PMS_P2;Temp;Humidity;BMP_temperature;BMP_pressure;BME280_temperature;BME280_humidity;BME280_pressure;Samples;Min_cycle;Max_cycle;Signal;HPM_P1;HPM_P2
2024/01/23 00:01:20;;;;;;;26.25;3.47;;;;;;;4.73;100.00;100459.91;5026903;28;20504;-86
2024/01/23 00:03:47;;;;;;;12.65;2.78;;;;;;;4.71;100.00;100461.78;5024111;28;20071;-86
2024/01/23 00:06:14;;;;;;;25.70;3.78;;;;;;;4.72;100.00;100460.84;4990861;28;20056;-85
2024/01/23 00:08:41;;;;;;;14.90;3.35;;;;;;;4.69;100.00;100451.34;5020280;28;20055;-86
2024/01/23 00:11:08;;;;;;;19.05;4.07;;;;;;;4.72;100.00;100466.94;5045819;28;20640;-85
2024/01/23 00:13:34;;;;;;;20.52;4.40;;;;;;;4.73;100.00;100473.06;5031320;28;20051;-86
2024/01/23 00:16:01;;;;;;;15.60;2.70;;;;;;;4.73;100.00;100466.03;5019821;28;20069;-86
2024/01/23 00:18:28;;;;;;;19.30;2.90;;;;;;;4.75;100.00;100468.56;5035350;28;20111;-86
2024/01/23 00:20:55;;;;;;;27.67;3.47;;;;;;;4.76;100.00;100463.22;5033317;28;20569;-87
2024/01/23 00:23:22;;;;;;;26.25;3.05;;;;;;;4.77;100.00;100470.19;5033648;28;20042;-87
2024/01/23 00:25:49;;;;;;;27.50;3.95;;;;;;;4.78;100.00;100471.03;5035255;28;20481;-88
2024/01/23 00:28:16;;;;;;;24.02;2.55;;;;;;;4.75;100.00;100455.41;5048231;28;20065;-87
2024/01/23 00:30:43;;;;;;;16.63;2.58;;;;;;;4.79;100.00;100472.75;5031986;28;20033;-86
2024/01/23 00:33:10;;;;;;;18.30;3.17;;;;;;;4.79;100.00;100462.22;4995834;28;20062;-87
2024/01/23 00:35:37;;;;;;;30.55;5.50;;;;;;;4.79;100.00;100468.31;5046063;28;20089;-87
2024/01/23 00:38:04;;;;;;;15.45;2.95;;;;;;;4.80;100.00;100461.28;5019584;28;20044;-87
2024/01/23 00:40:31;;;;;;;17.67;3.20;;;;;;;4.81;100.00;100459.47;5032872;28;20124;-85
2024/01/23 00:42:57;;;;;;;21.60;3.10;;;;;;;4.82;100.00;100464.66;5018328;28;20033;-86
2024/01/23 00:45:24;;;;;;;24.95;4.05;;;;;;;4.83;100.00;100478.66;5024591;28;20044;-86
2024/01/23 00:47:51;;;;;;;8.68;2.40;;;;;;;4.83;100.00;100468.16;5021226;28;20052;-87
2024/01/23 00:50:18;;;;;;;24.40;3.75;;;;;;;4.83;100.00;100468.16;5049305;28;20044;-87
2024/01/23 00:52:45;;;;;;;35.85;3.97;;;;;;;4.82;100.00;100458.56;5019835;28;20128;-86
2024/01/23 00:55:12;;;;;;;20.67;3.25;;;;;;;4.82;100.00;100451.50;5036064;28;20124;-86
2024/01/23 00:57:39;;;;;;;21.40;4.20;;;;;;;4.85;100.00;100468.91;5020667;28;20061;-87
2024/01/23 01:00:08;;;;;;;14.05;2.72;;;;;;;4.85;100.00;100463.66;5044744;28;20405;-86
2024/01/23 01:02:35;;;;;;;23.98;3.15;;;;;;;4.85;100.00;100467.13;5033509;28;20104;-86
2024/01/23 01:05:02;;;;;;;21.77;3.40;;;;;;;4.86;100.00;100492.53;5048892;28;20037;-88
2024/01/23 01:07:30;;;;;;;25.45;4.22;;;;;;;4.86;100.00;100481.13;5042774;28;20443;-87
2024/01/23 01:09:57;;;;;;;28.55;4.30;;;;;;;4.87;100.00;100496.84;5029863;28;20048;-86
2024/01/23 01:12:24;;;;;;;29.98;3.15;;;;;;;4.92;100.00;100493.97;5030685;28;20451;-87
2024/01/23 01:14:50;;;;;;;20.33;3.13;;;;;;;4.87;100.00;100488.94;5035232;28;20045;-85
2024/01/23 01:17:17;;;;;;;21.08;3.38;;;;;;;4.89;100.00;100500.25;5013341;28;20053;-86
2024/01/23 01:19:44;;;;;;;25.73;4.82;;;;;;;4.89;100.00;100481.81;5034313;28;20084;-86
2024/01/23 01:22:11;;;;;;;19.58;4.20;;;;;;;4.90;100.00;100507.19;5029278;28;20041;-86
2024/01/23 01:24:38;;;;;;;29.25;3.13;;;;;;;4.91;100.00;100529.09;4999860;28;20055;-86
2024/01/23 01:27:05;;;;;;;23.30;4.03;;;;;;;4.91;100.00;100534.34;5022558;28;20042;-85
2024/01/23 01:29:32;;;;;;;18.27;3.10;;;;;;;4.92;100.00;100536.91;5038335;28;20377;-86
2024/01/23 01:31:59;;;;;;;23.00;3.15;;;;;;;4.93;100.00;100532.50;5049563;28;20045;-86
2024/01/23 01:34:26;;;;;;;17.45;2.67;;;;;;;4.92;100.00;100528.19;4996028;28;20044;-86
2024/01/23 01:36:53;;;;;;;21.60;3.25;;;;;;;4.95;100.00;100557.81;5052200;28;20057;-86
2024/01/23 01:39:20;;;;;;;17.60;3.08;;;;;;;4.97;100.00;100544.56;5019649;28;20072;-86
2024/01/23 01:41:56;;;;;;;21.50;3.25;;;;;;;4.95;100.00;100563.06;5024943;28;20100;-86
2024/01/23 01:44:23;;;;;;;23.23;3.05;;;;;;;4.96;100.00;100550.75;5021171;28;20045;-86
2024/01/23 01:46:51;;;;;;;24.33;2.92;;;;;;;5.00;100.00;100552.31;5037426;28;20072;-86
2024/01/23 01:49:18;;;;;;;26.83;3.22;;;;;;;4.99;100.00;100569.88;5041087;28;20163;-86
2024/01/23 01:51:46;;;;;;;28.20;3.95;;;;;;;4.99;100.00;100556.72;5051667;28;20049;-85
2024/01/23 01:54:13;;;;;;;14.50;2.88;;;;;;;4.98;100.00;100570.78;5007472;28;20038;-86
2024/01/23 01:56:40;;;;;;;23.13;2.90;;;;;;;4.99;100.00;100579.56;5048334;28;20052;-87
2024/01/23 01:59:09;;;;;;;18.50;1.80;;;;;;;4.98;100.00;100573.44;5039387;28;20056;-86
2024/01/23 02:01:36;;;;;;;22.42;3.65;;;;;;;5.00;100.00;100579.47;5049906;28;20052;-86
2024/01/23 02:04:03;;;;;;;13.80;2.97;;;;;;;5.01;100.00;100577.69;5008699;28;20049;-86
2024/01/23 02:06:35;;;;;;;24.40;3.47;;;;;;;5.01;100.00;100575.03;5026497;28;20041;-86
2024/01/23 02:09:02;;;;;;;18.95;2.75;;;;;;;5.01;100.00;100567.16;5001556;28;20045;-86
2024/01/23 02:11:29;;;;;;;18.30;2.33;;;;;;;5.01;100.00;100553.97;5049917;28;20046;-86
2024/01/23 02:13:57;;;;;;;17.05;3.25;;;;;;;5.00;100.00;100562.81;5009640;28;20043;-86
2024/01/23 02:16:24;;;;;;;28.38;3.83;;;;;;;4.99;100.00;100572.50;5041914;28;20655;-85
2024/01/23 02:18:51;;;;;;;21.25;2.60;;;;;;;4.98;100.00;100565.53;5035617;28;20044;-85
2024/01/23 02:21:18;;;;;;;20.42;2.38;;;;;;;4.99;100.00;100559.34;5034717;28;20041;-86
2024/01/23 02:23:44;;;;;;;22.73;3.80;;;;;;;4.98;100.00;100552.38;5040715;28;20052;-86
2024/01/23 02:26:15;;;;;;;34.70;4.13;;;;;;;4.98;100.00;100556.78;5012034;28;20118;-86
2024/01/23 02:28:41;;;;;;;22.80;3.22;;;;;;;5.00;100.00;100557.56;5026653;28;20073;-86
2024/01/23 02:31:08;;;;;;;19.48;3.40;;;;;;;4.99;100.00;100567.25;5037224;28;20048;-86
2024/01/23 02:33:35;;;;;;;18.15;3.10;;;;;;;5.00;100.00;100571.56;5034040;28;20044;-85
2024/01/23 02:36:02;;;;;;;22.08;3.67;;;;;;;5.02;100.00;100568.03;5036617;28;20049;-86
2024/01/23 02:38:29;;;;;;;21.65;3.03;;;;;;;5.01;100.00;100559.25;4995585;28;20067;-87
2024/01/23 02:40:56;;;;;;;14.80;3.08;;;;;;;5.02;100.00;100568.88;5051570;28;20047;-86
2024/01/23 02:43:23;;;;;;;16.08;3.08;;;;;;;5.00;100.00;100571.56;5034580;28;20127;-86
2024/01/23 02:45:50;;;;;;;24.23;3.90;;;;;;;5.02;100.00;100566.22;5042436;28;20138;-86
2024/01/23 02:48:17;;;;;;;17.33;2.45;;;;;;;4.98;100.00;100565.53;5020110;28;20053;-86
2024/01/23 02:50:44;;;;;;;20.42;2.28;;;;;;;5.00;100.00;100563.66;5033669;28;20132;-85
2024/01/23 02:53:10;;;;;;;21.60;2.90;;;;;;;5.02;100.00;100568.88;5007465;28;20045;-86
2024/01/23 02:55:37;;;;;;;33.45;4.30;;;;;;;4.99;100.00;100569.88;5040115;28;20067;-84
2024/01/23 02:58:04;;;;;;;15.23;1.95;;;;;;;5.03;100.00;100559.19;5001125;28;20083;-86
2024/01/23 03:00:32;;;;;;;21.52;3.65;;;;;;;5.03;100.00;100553.91;5037809;28;20041;-87
2024/01/23 03:02:59;;;;;;;18.70;2.38;;;;;;;5.02;100.00;100571.50;5047465;28;20492;-85
2024/01/23 03:05:26;;;;;;;17.23;2.22;;;;;;;5.03;100.00;100585.50;5026474;28;20124;-86
2024/01/23 03:07:53;;;;;;;26.58;2.83;;;;;;;5.05;100.00;100591.53;5022552;28;20064;-86
2024/01/23 03:10:20;;;;;;;21.40;2.60;;;;;;;5.03;100.00;100591.63;5016194;28;20136;-86
2024/01/23 03:12:47;;;;;;;15.68;1.73;;;;;;;5.05;100.00;100591.53;5023124;28;20128;-87
2024/01/23 03:15:13;;;;;;;27.58;2.90;;;;;;;5.07;100.00;100595.78;5024357;28;20041;-86
2024/01/23 03:17:41;;;;;;;16.23;4.15;;;;;;;5.07;100.00;100601.06;5021696;28;20046;-87
2024/01/23 03:20:08;;;;;;;17.60;2.42;;;;;;;5.04;100.00;100614.38;5024739;28;20044;-87
2024/01/23 03:22:35;;;;;;;22.52;3.38;;;;;;;5.05;100.00;100623.97;5019410;28;20046;-86
2024/01/23 03:25:02;;;;;;;16.75;2.20;;;;;;;5.07;100.00;100634.44;5035040;28;20793;-87
2024/01/23 03:27:29;;;;;;;18.05;2.72;;;;;;;5.05;100.00;100623.97;5025369;28;20049;-87
2024/01/23 03:29:56;;;;;;;15.93;2.17;;;;;;;5.04;100.00;100618.78;5015766;28;20048;-85
2024/01/23 03:32:23;;;;;;;29.35;2.65;;;;;;;5.05;100.00;100617.88;5034879;28;20127;-86
2024/01/23 03:34:50;;;;;;;20.27;2.92;;;;;;;5.04;100.00;100616.16;5032349;28;20064;-86
2024/01/23 03:37:17;;;;;;;29.05;4.13;;;;;;;5.05;100.00;100615.22;5036642;28;20045;-85
2024/01/23 03:39:44;;;;;;;13.02;1.90;;;;;;;5.05;100.00;100620.50;5033114;28;20057;-86
2024/01/23 03:42:11;;;;;;;30.15;3.38;;;;;;;5.06;100.00;100627.44;5036310;28;20045;-86
2024/01/23 03:44:38;;;;;;;12.70;2.30;;;;;;;5.06;100.00;100651.13;5032540;28;20060;-86
2024/01/23 03:47:05;;;;;;;38.25;4.78;;;;;;;5.06;100.00;100651.13;5019101;28;20051;-86
2024/01/23 03:49:32;;;;;;;31.55;4.40;;;;;;;5.05;100.00;100658.19;5008740;28;20125;-85
2024/01/23 03:51:59;;;;;;;18.48;2.45;;;;;;;5.05;100.00;100662.63;5032826;28;20045;-85
2024/01/23 03:54:26;;;;;;;20.90;3.10;;;;;;;5.05;100.00;100673.13;5067009;28;20095;-86
2024/01/23 03:56:53;;;;;;;27.13;3.35;;;;;;;5.07;100.00;100671.28;5041790;28;20496;-86
2024/01/23 03:59:20;;;;;;;21.35;2.60;;;;;;;5.08;100.00;100672.97;5034380;28;21008;-86
2024/01/23 04:01:47;;;;;;;22.13;2.38;;;;;;;5.05;100.00;100679.25;5063296;28;20384;-86
2024/01/23 04:04:13;;;;;;;29.10;5.13;;;;;;;5.04;100.00;100680.19;5013748;28;20045;-86
2024/01/23 04:06:40;;;;;;;27.83;4.53;;;;;;;5.02;100.00;100679.41;5035684;28;20052;-85
2024/01/23 04:09:07;;;;;;;24.00;3.00;;;;;;;5.02;100.00;100682.06;5049043;28;20049;-85
2024/01/23 04:11:34;;;;;;;23.23;2.92;;;;;;;5.06;100.00;100680.09;4990860;28;20061;-85
2024/01/23 04:14:00;;;;;;;25.13;3.30;;;;;;;5.05;100.00;100681.03;5038336;28;20411;-86
2024/01/23 04:16:27;;;;;;;31.23;3.72;;;;;;;5.05;100.00;100683.66;5021809;28;20045;-86
2024/01/23 04:18:54;;;;;;;31.77;4.22;;;;;;;5.07;100.00;100698.47;5031159;28;20080;-85
2024/01/23 04:21:23;;;;;;;18.48;3.78;;;;;;;5.08;100.00;100688.78;5064809;28;20110;-86
2024/01/23 04:23:50;;;;;;;19.65;3.05;;;;;;;5.09;100.00;100711.53;5033948;28;20037;-86
2024/01/23 04:26:18;;;;;;;35.45;4.28;;;;;;;5.10;100.00;100721.13;5019555;28;20042;-86
2024/01/23 04:28:46;;;;;;;30.25;3.15;;;;;;;5.10;100.00;100713.25;5046961;28;20041;-85
2024/01/23 04:31:13;;;;;;;28.73;3.20;;;;;;;5.09;100.00;100714.16;5056062;28;20045;-85
2024/01/23 04:33:40;;;;;;;40.80;5.13;;;;;;;5.09;100.00;100719.41;5040121;28;20056;-85
2024/01/23 04:36:07;;;;;;;36.35;4.20;;;;;;;5.08;100.00;100721.22;5055227;28;20071;-85
2024/01/23 04:38:34;;;;;;;30.42;3.88;;;;;;;5.09;100.00;100720.28;5047396;28;20037;-85
2024/01/23 04:41:00;;;;;;;42.17;5.40;;;;;;;5.06;100.00;100727.47;5060918;28;20052;-85
2024/01/23 04:43:27;;;;;;;25.42;4.50;;;;;;;5.04;100.00;100731.97;5008399;28;20055;-85
2024/01/23 04:45:54;;;;;;;33.55;5.65;;;;;;;5.00;100.00;100733.91;5030199;28;20044;-85
2024/01/23 04:48:20;;;;;;;29.98;6.15;;;;;;;5.00;100.00;100736.53;4993787;28;20032;-86
2024/01/23 04:50:47;;;;;;;80.75;19.05;;;;;;;4.99;100.00;100740.13;5022635;28;20127;-85
2024/01/23 04:53:14;;;;;;;44.50;7.68;;;;;;;4.99;100.00;100754.13;5021423;28;20436;-85
2024/01/23 04:55:41;;;;;;;28.77;3.80;;;;;;;4.97;100.00;100748.09;5037957;28;20041;-85
2024/01/23 04:58:08;;;;;;;31.33;4.93;;;;;;;4.97;100.00;100771.78;5036276;28;20045;-84
2024/01/23 05:00:35;;;;;;;28.25;3.65;;;;;;;4.97;100.00;100773.56;5007347;28;20044;-85
2024/01/23 05:03:02;;;;;;;36.67;6.03;;;;;;;4.97;100.00;100779.66;5019568;28;20095;-85
2024/01/23 05:05:31;;;;;;;28.00;4.78;;;;;;;4.96;100.00;100791.13;5034005;28;20052;-85
2024/01/23 05:07:57;;;;;;;28.17;3.88;;;;;;;4.95;100.00;100805.22;5031272;28;20035;-85
2024/01/23 05:10:24;;;;;;;31.00;4.28;;;;;;;4.96;100.00;100792.88;5031545;28;20518;-85
2024/01/23 05:12:51;;;;;;;42.33;4.65;;;;;;;4.94;100.00;100797.41;5023601;28;20392;-85
2024/01/23 05:15:18;;;;;;;21.60;4.50;;;;;;;4.95;100.00;100791.19;5029680;28;20056;-85
2024/01/23 05:17:45;;;;;;;35.70;5.18;;;;;;;4.94;100.00;100806.16;5047741;28;20427;-85
2024/01/23 05:20:11;;;;;;;27.52;5.78;;;;;;;4.96;100.00;100821.84;5046730;28;20075;-85
2024/01/23 05:22:38;;;;;;;40.45;8.55;;;;;;;4.96;100.00;100821.84;5021185;28;20049;-85
2024/01/23 05:25:05;;;;;;;45.83;10.90;;;;;;;4.96;100.00;100829.75;5031288;28;20044;-85
2024/01/23 05:27:32;;;;;;;38.72;10.80;;;;;;;4.96;100.00;100832.38;5023281;28;20072;-85
2024/01/23 05:29:59;;;;;;;43.42;14.45;;;;;;;4.97;100.00;100829.69;5064847;28;20080;-85
2024/01/23 05:32:26;;;;;;;48.47;13.88;;;;;;;4.97;100.00;100831.47;5031050;28;20045;-85
2024/01/23 05:34:53;;;;;;;39.97;13.75;;;;;;;4.98;100.00;100838.41;5019149;28;20120;-85
2024/01/23 05:37:20;;;;;;;45.72;12.18;;;;;;;4.99;100.00;100841.00;5032651;28;20114;-85
2024/01/23 05:39:46;;;;;;;39.63;9.15;;;;;;;4.98;100.00;100849.78;5030951;28;20037;-85
2024/01/23 05:42:13;;;;;;;28.05;8.40;;;;;;;4.98;100.00;100838.41;5030525;28;20042;-85
2024/01/23 05:44:40;;;;;;;52.70;11.82;;;;;;;4.98;100.00;100838.41;5035828;28;20073;-85
2024/01/23 05:47:11;;;;;;;39.67;10.50;;;;;;;4.98;100.00;100851.59;5028992;28;20048;-85
2024/01/23 05:49:37;;;;;;;35.22;7.90;;;;;;;4.98;100.00;100851.59;5029057;28;20081;-85
2024/01/23 05:52:04;;;;;;;45.88;7.13;;;;;;;4.95;100.00;100849.94;5061307;28;20619;-85
2024/01/23 05:54:31;;;;;;;34.00;5.40;;;;;;;4.95;100.00;100851.75;5018386;28;20050;-85
2024/01/23 05:56:59;;;;;;;51.65;6.05;;;;;;;4.94;100.00;100865.84;5047857;28;20049;-85
2024/01/23 05:59:26;;;;;;;30.10;4.78;;;;;;;4.94;100.00;100879.84;5023496;28;20479;-85
2024/01/23 06:01:53;;;;;;;39.78;5.15;;;;;;;4.93;100.00;100885.16;5049181;28;20533;-85
2024/01/23 06:04:19;;;;;;;40.28;5.03;;;;;;;4.94;100.00;100897.41;5026041;28;20044;-85
2024/01/23 06:06:46;;;;;;;34.75;6.05;;;;;;;4.95;100.00;100907.00;5017427;28;20041;-85
2024/01/23 06:09:13;;;;;;;25.77;5.25;;;;;;;4.94;100.00;100906.16;5033619;28;20049;-85
2024/01/23 06:11:40;;;;;;;47.92;7.43;;;;;;;4.93;100.00;100909.69;5044469;28;20057;-86
2024/01/23 06:14:07;;;;;;;20.77;4.18;;;;;;;4.93;100.00;100912.34;5029498;28;20118;-85
2024/01/23 06:16:34;;;;;;;35.95;6.63;;;;;;;4.94;100.00;100915.84;5031927;28;20403;-85
2024/01/23 06:19:01;;;;;;;37.20;5.47;;;;;;;4.93;100.00;100916.75;5036771;28;20050;-85
2024/01/23 06:21:28;;;;;;;41.63;6.68;;;;;;;4.93;100.00;100929.91;5038971;28;20136;-86
2024/01/23 06:23:55;;;;;;;35.05;6.75;;;;;;;4.93;100.00;100933.38;5028543;28;21083;-85
2024/01/23 06:26:22;;;;;;;40.78;6.72;;;;;;;4.95;100.00;100947.34;5046491;28;20045;-86
2024/01/23 06:28:49;;;;;;;49.22;6.45;;;;;;;4.96;100.00;100956.09;5032746;28;20045;-85
2024/01/23 06:31:16;;;;;;;36.05;6.05;;;;;;;4.96;100.00;100966.59;5056279;28;20037;-85
2024/01/23 06:33:42;;;;;;;43.15;5.80;;;;;;;4.96;100.00;100971.88;5024399;28;20045;-86
2024/01/23 06:36:09;;;;;;;34.63;5.63;;;;;;;4.95;100.00;100978.91;5064553;28;20126;-85
2024/01/23 06:38:36;;;;;;;39.13;6.47;;;;;;;4.96;100.00;100975.38;5042025;28;20323;-86
2024/01/23 06:41:03;;;;;;;32.70;5.80;;;;;;;4.94;100.00;100989.53;5017605;28;20090;-86
2024/01/23 06:43:31;;;;;;;43.55;6.00;;;;;;;4.94;100.00;100989.53;5029674;28;20061;-85
2024/01/23 06:45:57;;;;;;;20.20;4.53;;;;;;;4.93;100.00;100999.19;5035756;28;20053;-86
2024/01/23 06:48:24;;;;;;;37.95;5.78;;;;;;;4.91;100.00;101005.44;5036136;28;20045;-86
2024/01/23 06:50:51;;;;;;;42.63;5.85;;;;;;;4.92;100.00;101009.81;5035727;28;20072;-85
2024/01/23 06:53:18;;;;;;;40.45;7.20;;;;;;;4.91;100.00;101010.72;5034392;28;20069;-86
2024/01/23 06:55:45;;;;;;;24.30;5.75;;;;;;;4.92;100.00;101025.59;5016815;28;20049;-86
2024/01/23 06:58:11;;;;;;;39.65;7.53;;;;;;;4.88;100.00;101024.03;5047914;28;20041;-86
2024/01/23 07:00:39;;;;;;;31.92;5.32;;;;;;;4.86;100.00;101026.75;5015454;28;20667;-85
2024/01/23 07:03:08;;;;;;;42.65;7.45;;;;;;;4.87;100.00;101046.84;5039320;28;20055;-85
2024/01/23 07:05:35;;;;;;;42.45;6.32;;;;;;;4.85;100.00;101050.47;5031871;28;20061;-86
2024/01/23 07:08:05;;;;;;;37.10;6.32;;;;;;;4.84;100.00;101059.31;5014001;28;20675;-86
2024/01/23 07:10:32;;;;;;;40.75;6.28;;;;;;;4.82;100.00;101064.63;5051477;28;20755;-86
2024/01/23 07:12:59;;;;;;;46.20;6.22;;;;;;;4.83;100.00;101068.13;5037117;28;20076;-86
2024/01/23 07:15:25;;;;;;;30.05;7.55;;;;;;;4.84;100.00;101075.97;5054678;28;20520;-84
2024/01/23 07:17:53;;;;;;;38.00;13.05;;;;;;;4.84;100.00;101081.22;5024746;28;20069;-86
2024/01/23 07:20:20;;;;;;;55.45;12.80;;;;;;;4.82;100.00;101085.69;5052979;28;20921;-86
2024/01/23 07:22:47;;;;;;;36.28;9.77;;;;;;;4.79;100.00;101086.69;5020922;28;20049;-84
2024/01/23 07:25:13;;;;;;;58.25;10.60;;;;;;;4.78;100.00;101084.09;5003704;28;20038;-86
2024/01/23 07:27:40;;;;;;;52.63;10.68;;;;;;;4.78;100.00;101086.72;5032185;28;20051;-86
2024/01/23 07:30:08;;;;;;;45.50;10.05;;;;;;;4.78;100.00;101087.63;5006735;28;20114;-86
2024/01/23 07:32:34;;;;;;;40.40;8.40;;;;;;;4.79;100.00;101096.34;5061893;28;20500;-86
2024/01/23 07:35:02;;;;;;;31.27;7.75;;;;;;;4.79;100.00;101104.25;5034028;28;20077;-86
2024/01/23 07:37:29;;;;;;;44.10;8.43;;;;;;;4.81;100.00;101106.78;5036685;28;20061;-86
2024/01/23 07:39:56;;;;;;;44.47;8.88;;;;;;;4.79;100.00;101109.50;5061693;28;20049;-87
2024/01/23 07:42:23;;;;;;;33.75;7.65;;;;;;;4.83;100.00;101120.75;5034786;28;20045;-86
2024/01/23 07:44:49;;;;;;;25.17;7.38;;;;;;;4.84;100.00;101123.31;5031774;28;20100;-87
2024/01/23 07:47:16;;;;;;;25.58;5.82;;;;;;;4.85;100.00;101132.91;5038038;28;20052;-86
2024/01/23 07:49:43;;;;;;;40.53;7.20;;;;;;;4.87;100.00;101133.72;5024086;28;20125;-86
2024/01/23 07:52:16;;;;;;;31.35;5.57;;;;;;;4.87;100.00;101138.13;5030546;28;20045;-86
2024/01/23 07:54:43;;;;;;;38.30;6.82;;;;;;;4.91;100.00;101142.31;5040339;28;20463;-87
2024/01/23 07:57:09;;;;;;;30.05;5.47;;;;;;;4.92;100.00;101154.56;5033769;28;20397;-88
2024/01/23 07:59:37;;;;;;;31.15;5.78;;;;;;;4.95;100.00;101159.69;5031521;28;20049;-87
2024/01/23 08:02:04;;;;;;;34.40;6.25;;;;;;;4.98;100.00;101163.03;5032188;28;20072;-84
2024/01/23 08:04:31;;;;;;;27.05;6.93;;;;;;;5.02;100.00;101170.81;5016338;28;20072;-87
2024/01/23 08:06:58;;;;;;;28.50;5.72;;;;;;;5.02;100.00;101178.72;5033903;28;20464;-87
2024/01/23 08:09:25;;;;;;;30.15;7.57;;;;;;;5.06;100.00;101188.19;5029633;28;20059;-87
2024/01/23 08:11:53;;;;;;;28.45;6.45;;;;;;;5.07;100.00;101180.22;5039629;28;20408;-87
2024/01/23 08:14:20;;;;;;;27.17;5.55;;;;;;;5.09;100.00;101186.28;5031697;28;20049;-87
2024/01/23 08:16:46;;;;;;;27.80;5.07;;;;;;;5.09;100.00;101178.38;5063249;28;20048;-83
2024/01/23 08:19:16;;;;;;;30.23;5.93;;;;;;;5.10;100.00;101182.72;5022811;28;20508;-87
2024/01/23 08:21:42;;;;;;;39.17;9.63;;;;;;;5.11;100.00;101186.19;5065036;28;20049;-87
2024/01/23 08:24:09;;;;;;;31.08;7.60;;;;;;;5.12;100.00;101188.78;4991538;28;20127;-86
2024/01/23 08:26:36;;;;;;;24.15;5.30;;;;;;;5.13;100.00;101189.63;5036479;28;20069;-87
2024/01/23 08:29:03;;;;;;;20.25;3.00;;;;;;;5.15;100.00;101185.16;5063564;28;20477;-86
2024/01/23 08:31:30;;;;;;;26.95;4.20;;;;;;;5.18;100.00;101182.38;5032677;28;20122;-86
2024/01/23 08:33:57;;;;;;;15.77;2.97;;;;;;;5.21;100.00;101187.50;5048595;28;20045;-87
2024/01/23 08:36:24;;;;;;;27.58;5.15;;;;;;;5.26;100.00;101184.66;5035064;28;20051;-87
2024/01/23 08:38:51;;;;;;;18.38;3.97;;;;;;;5.29;100.00;101200.31;5021138;28;20048;-87
2024/01/23 08:41:18;;;;;;;38.10;6.13;;;;;;;5.30;100.00;101195.00;5043414;28;20385;-86
2024/01/23 08:43:45;;;;;;;29.38;5.28;;;;;;;5.36;100.00;101199.13;5020029;28;20156;-86
2024/01/23 08:46:14;;;;;;;21.00;5.70;;;;;;;5.39;100.00;101196.34;5064241;28;20211;-87
2024/01/23 08:48:41;;;;;;;21.95;4.47;;;;;;;5.43;100.00;101201.41;5031357;28;20046;-87
2024/01/23 08:51:10;;;;;;;15.82;3.78;;;;;;;5.46;100.00;101191.69;5052883;28;20045;-88
2024/01/23 08:53:37;;;;;;;30.17;3.78;;;;;;;5.39;100.00;101197.22;5039276;28;20053;-86
2024/01/23 08:56:04;;;;;;;15.15;2.65;;;;;;;5.44;100.00;101197.88;5038055;28;20076;-86
2024/01/23 08:58:31;;;;;;;17.73;2.65;;;;;;;5.44;100.00;101202.25;5032034;28;20134;-87
2024/01/23 09:00:59;;;;;;;19.48;3.22;;;;;;;5.44;100.00;101207.53;5029357;28;20049;-87
2024/01/23 09:03:26;;;;;;;22.27;3.38;;;;;;;5.43;100.00;101213.75;5023297;28;20485;-86
2024/01/23 09:05:53;;;;;;;23.23;4.55;;;;;;;5.44;100.00;101218.06;5030586;28;20045;-86
2024/01/23 09:08:20;;;;;;;14.70;4.82;;;;;;;5.41;100.00;101226.13;5014738;28;20045;-85
2024/01/23 09:10:49;;;;;;;18.15;4.25;;;;;;;5.41;100.00;101234.88;5062470;28;22627;-82
2024/01/23 09:13:18;;;;;;;22.65;4.70;;;;;;;5.41;100.00;101228.75;5020540;28;20132;-86
2024/01/23 09:15:45;;;;;;;20.65;3.25;;;;;;;5.36;100.00;101230.75;5030173;28;20042;-86
2024/01/23 09:18:11;;;;;;;14.02;2.85;;;;;;;5.41;100.00;101232.25;5033129;28;20049;-85
2024/01/23 09:20:38;;;;;;;22.60;3.88;;;;;;;5.40;100.00;101224.44;5065209;28;20136;-85
2024/01/23 09:23:05;;;;;;;23.00;5.15;;;;;;;5.45;100.00;101240.88;5034260;28;20106;-86
2024/01/23 09:25:34;;;;;;;26.95;5.65;;;;;;;5.48;100.00;101234.63;5008112;28;20064;-86
2024/01/23 09:28:24;;;;;;;;;;;;;;;;;;;;;
2024/01/23 09:31:00;;;;;;;18.60;3.58;;;;;;;5.54;100.00;101255.41;5011417;28;20060;-86
2024/01/23 09:33:27;;;;;;;15.73;3.25;;;;;;;5.57;100.00;101264.06;5029366;28;20049;-86
2024/01/23 09:35:54;;;;;;;31.48;4.25;;;;;;;5.59;100.00;101269.22;5037509;28;20053;-86
2024/01/23 09:38:21;;;;;;;25.90;4.10;;;;;;;5.58;100.00;101262.25;5050789;28;20544;-86
2024/01/23 09:40:51;;;;;;;14.98;2.65;;;;;;;5.60;100.00;101274.44;5013935;28;20584;-86
2024/01/23 09:43:21;;;;;;;19.98;5.38;;;;;;;5.61;100.00;101277.94;5033749;28;20052;-86
2024/01/23 09:45:50;;;;;;;20.05;3.40;;;;;;;5.65;100.00;101274.25;5026234;28;20492;-86
2024/01/23 09:48:19;;;;;;;18.08;3.45;;;;;;;5.68;100.00;101273.25;5033194;28;20048;-85
2024/01/23 09:50:48;;;;;;;28.98;5.22;;;;;;;5.67;100.00;101282.91;5026967;28;20043;-85
2024/01/23 09:53:15;;;;;;;23.60;4.20;;;;;;;5.75;100.00;101286.09;5005103;28;20085;-84
2024/01/23 09:55:42;;;;;;;22.02;5.95;;;;;;;5.78;100.00;101290.34;5041484;28;20036;-85
2024/01/23 09:58:10;;;;;;;25.23;3.85;;;;;;;5.80;100.00;101294.63;5053144;28;20052;-83
2024/01/23 10:00:37;;;;;;;16.08;3.28;;;;;;;5.80;100.00;101299.91;5037143;28;20053;-82
2024/01/23 10:03:04;;;;;;;23.40;3.47;;;;;;;5.81;100.00;101308.66;5078673;28;20424;-85
2024/01/23 10:05:31;;;;;;;21.75;4.35;;;;;;;5.82;100.00;101300.66;5046737;28;20048;-85
2024/01/23 10:08:00;;;;;;;19.50;4.50;;;;;;;5.82;100.00;101305.09;5039614;28;20147;-84
2024/01/23 10:10:29;;;;;;;44.42;7.35;;;;;;;5.84;100.00;101305.88;5016758;28;20051;-86
2024/01/23 10:13:03;;;;;;;19.15;4.03;;;;;;;5.82;100.00;101298.03;4996086;28;20377;-85
2024/01/23 10:15:30;;;;;;;31.73;4.28;;;;;;;5.87;100.00;101308.38;5040827;28;20041;-85
2024/01/23 10:17:57;;;;;;;19.27;3.47;;;;;;;5.88;100.00;101312.75;5062604;28;20041;-85
2024/01/23 10:20:24;;;;;;;17.35;3.97;;;;;;;5.91;100.00;101303.84;5026321;28;20931;-86
2024/01/23 10:22:52;;;;;;;30.77;3.90;;;;;;;5.94;100.00;101312.47;5026382;28;20055;-85
2024/01/23 10:25:20;;;;;;;30.85;5.47;;;;;;;5.95;100.00;101315.97;5038677;28;20132;-85
2024/01/23 10:27:52;;;;;;;24.33;4.30;;;;;;;5.96;100.00;101312.44;5024954;28;20045;-85
2024/01/23 10:30:19;;;;;;;27.33;5.18;;;;;;;5.97;100.00;101308.84;5057153;28;20487;-85
2024/01/23 10:32:46;;;;;;;26.15;4.50;;;;;;;5.98;100.00;101307.91;5040545;28;20056;-85
2024/01/23 10:35:14;;;;;;;20.45;4.78;;;;;;;5.99;100.00;101296.47;5039114;28;20420;-86
2024/01/23 10:37:41;;;;;;;25.90;5.05;;;;;;;6.00;100.00;101304.28;5044515;28;20508;-86
2024/01/23 10:40:13;;;;;;;23.45;4.22;;;;;;;5.99;100.00;101296.47;5011141;28;20448;-85
2024/01/23 10:42:40;;;;;;;36.50;6.20;;;;;;;6.02;100.00;101293.69;5039889;28;20049;-85
2024/01/23 10:45:10;;;;;;;32.72;5.18;;;;;;;6.05;100.00;101297.00;5021648;28;20107;-86
2024/01/23 10:47:38;;;;;;;34.45;5.72;;;;;;;6.07;100.00;101295.16;5032876;28;20041;-86
2024/01/23 10:50:07;;;;;;;37.13;5.72;;;;;;;6.09;100.00;101295.97;5021934;28;20239;-85
2024/01/23 10:52:39;;;;;;;32.63;6.82;;;;;;;6.10;100.00;101296.81;5023131;28;20059;-85
2024/01/23 10:55:08;;;;;;;25.35;5.03;;;;;;;6.13;100.00;101295.81;5032146;28;20041;-85
2024/01/23 10:57:36;;;;;;;48.60;6.20;;;;;;;6.15;100.00;101288.69;5019031;28;20068;-85
2024/01/23 11:00:04;;;;;;;29.75;4.30;;;;;;;6.15;100.00;101291.31;5034459;28;20118;-85
2024/01/23 11:02:39;;;;;;;29.95;4.90;;;;;;;6.14;100.00;101301.03;5021519;28;20068;-85
2024/01/23 11:05:06;;;;;;;49.92;5.60;;;;;;;6.15;100.00;101299.25;5036031;28;20040;-85
2024/01/23 11:07:52;;;;;;;28.27;4.18;;;;;;;6.13;100.00;101299.31;5007336;28;20132;-85
2024/01/23 11:10:36;;;;;;;45.78;7.03;;;;;;;6.13;100.00;101304.59;5032192;28;20057;-85
2024/01/23 11:13:07;;;;;;;34.05;4.38;;;;;;;6.14;100.00;101306.31;5063141;28;20040;-85
2024/01/23 11:15:34;;;;;;;31.65;4.53;;;;;;;6.15;100.00;101309.78;5050898;28;20095;-85
2024/01/23 11:18:25;;;;;;;33.22;5.32;;;;;;;6.11;100.00;101301.19;5036378;28;20135;-85
2024/01/23 11:21:08;;;;;;;31.70;4.13;;;;;;;6.14;100.00;101297.53;5062996;28;20042;-85